Observation data for Fluvanna on 11/17/2019      Previous  Date       Current Mesonet Observations  Soil Data  Daily Summary Page  Observations in Plain Language
KFVS 170600Z 19008KT 07/04 A2997 RMK A01 T00740035  RH  077%=      5-min Rain = 0
KFVS 170605Z 20009KT 08/04 A2997 RMK A01 T00770036  RH  077%=      5-min Rain = 0
KFVS 170610Z 20008KT 08/04 A2997 RMK A01 T00780036  RH  076%=      5-min Rain = 0
KFVS 170615Z 20008KT 08/04 A2997 RMK A01 T00790036  RH  075%=      5-min Rain = 0
KFVS 170620Z 21009KT 08/04 A2997 RMK A01 T00800036  RH  075%=      5-min Rain = 0
KFVS 170625Z 21009G14KT 08/04 A2998 RMK A01 T00820036  RH  074%=      5-min Rain = 0
KFVS 170630Z 21010KT 08/04 A2998 RMK A01 T00810035  RH  074%=      5-min Rain = 0
KFVS 170635Z 21011KT 08/04 A2997 RMK A01 T00780035  RH  075%=      5-min Rain = 0
KFVS 170640Z 21012KT 08/04 A2997 RMK A01 T00800036  RH  075%=      5-min Rain = 0
KFVS 170645Z 21011KT 08/04 A2997 RMK A01 T00800036  RH  075%=      5-min Rain = 0
KFVS 170650Z 21010KT 08/04 A2997 RMK A01 T00800036  RH  075%=      5-min Rain = 0
KFVS 170655Z 21009KT 08/04 A2997 RMK A01 T00800036  RH  075%=      5-min Rain = 0
KFVS 170700Z 20007KT 08/04 A2997 RMK A01 T00790036  RH  075%=      5-min Rain = 0
KFVS 170705Z 20008KT 08/04 A2997 RMK A01 T00770035  RH  076%=      5-min Rain = 0
KFVS 170710Z 20007KT 08/03 A2997 RMK A01 T00750034  RH  077%=      5-min Rain = 0
KFVS 170715Z 20007KT 07/04 A2997 RMK A01 T00740035  RH  078%=      5-min Rain = 0
KFVS 170720Z 21008KT 08/04 A2997 RMK A01 T00750035  RH  077%=      5-min Rain = 0
KFVS 170725Z 21008KT 07/04 A2997 RMK A01 T00730035  RH  078%=      5-min Rain = 0
KFVS 170730Z 20009KT 08/04 A2997 RMK A01 T00750036  RH  078%=      5-min Rain = 0
KFVS 170735Z 20012KT 08/04 A2997 RMK A01 T00780037  RH  076%=      5-min Rain = 0
KFVS 170740Z 20011KT 08/04 A2996 RMK A01 T00780036  RH  076%=      5-min Rain = 0
KFVS 170745Z 21011KT 08/04 A2996 RMK A01 T00780036  RH  077%=      5-min Rain = 0
KFVS 170750Z 21011KT 08/04 A2996 RMK A01 T00780036  RH  076%=      5-min Rain = 0
KFVS 170755Z 20009KT 08/04 A2996 RMK A01 T00760035  RH  077%=      5-min Rain = 0
KFVS 170800Z 21009G14KT 08/04 A2996 RMK A01 T00760036  RH  077%=      5-min Rain = 0
KFVS 170805Z 21009KT 08/04 A2997 RMK A01 T00750035  RH  077%=      5-min Rain = 0
KFVS 170810Z 21008KT 07/04 A2997 RMK A01 T00740035  RH  078%=      5-min Rain = 0
KFVS 170815Z 21008KT 07/03 A2997 RMK A01 T00720034  RH  078%=      5-min Rain = 0
KFVS 170820Z 21009KT 07/04 A2996 RMK A01 T00710035  RH  079%=      5-min Rain = 0
KFVS 170825Z 21009KT 07/04 A2996 RMK A01 T00710035  RH  079%=      5-min Rain = 0
KFVS 170830Z 20009KT 07/04 A2996 RMK A01 T00720036  RH  079%=      5-min Rain = 0
KFVS 170835Z 20009KT 07/04 A2996 RMK A01 T00730036  RH  079%=      5-min Rain = 0
KFVS 170840Z 21009KT 07/04 A2996 RMK A01 T00730036  RH  079%=      5-min Rain = 0
KFVS 170845Z 21009KT 07/04 A2996 RMK A01 T00720036  RH  079%=      5-min Rain = 0
KFVS 170850Z 20010KT 07/04 A2996 RMK A01 T00730037  RH  079%=      5-min Rain = 0
KFVS 170855Z 21009KT 07/04 A2996 RMK A01 T00740037  RH  079%=      5-min Rain = 0
KFVS 170900Z 21010KT 07/04 A2996 RMK A01 T00730037  RH  079%=      5-min Rain = 0
KFVS 170905Z 21011KT 07/04 A2996 RMK A01 T00730037  RH  079%=      5-min Rain = 0
KFVS 170910Z 21011KT 07/04 A2995 RMK A01 T00740037  RH  079%=      5-min Rain = 0
KFVS 170915Z 21011KT 07/04 A2995 RMK A01 T00740037  RH  079%=      5-min Rain = 0
KFVS 170920Z 21011KT 07/04 A2995 RMK A01 T00740037  RH  079%=      5-min Rain = 0
KFVS 170925Z 21011KT 07/04 A2995 RMK A01 T00720037  RH  080%=      5-min Rain = 0
KFVS 170930Z 21010KT 07/04 A2995 RMK A01 T00720037  RH  080%=      5-min Rain = 0
KFVS 170935Z 21009KT 07/04 A2996 RMK A01 T00700036  RH  080%=      5-min Rain = 0
KFVS 170940Z 20009KT 07/04 A2996 RMK A01 T00690036  RH  081%=      5-min Rain = 0
KFVS 170945Z 20007KT 07/04 A2996 RMK A01 T00660035  RH  082%=      5-min Rain = 0
KFVS 170950Z 20007KT 07/04 A2996 RMK A01 T00660035  RH  082%=      5-min Rain = 0
KFVS 170955Z 21007KT 07/03 A2996 RMK A01 T00650034  RH  082%=      5-min Rain = 0
KFVS 171000Z 22006KT 06/03 A2996 RMK A01 T00620033  RH  083%=      5-min Rain = 0
KFVS 171005Z 23007KT 07/04 A2997 RMK A01 T00650035  RH  083%=      5-min Rain = 0
KFVS 171010Z 23007KT 06/03 A2997 RMK A01 T00640033  RH  082%=      5-min Rain = 0
KFVS 171015Z 23007KT 06/03 A2997 RMK A01 T00630033  RH  083%=      5-min Rain = 0
KFVS 171020Z 24005KT 06/03 A2997 RMK A01 T00620033  RH  083%=      5-min Rain = 0
KFVS 171025Z 25003KT 06/03 A2997 RMK A01 T00600031  RH  083%=      5-min Rain = 0
KFVS 171030Z 25004KT 06/03 A2997 RMK A01 T00600032  RH  084%=      5-min Rain = 0
KFVS 171035Z 33004KT 05/02 A2997 RMK A01 T00510023  RH  083%=      5-min Rain = 0
KFVS 171040Z 29002KT 04/02 A2997 RMK A01 T00420020  RH  087%=      5-min Rain = 0
KFVS 171045Z 30002KT 05/03 A2997 RMK A01 T00450026  RH  089%=      5-min Rain = 0
KFVS 171050Z 26001KT 05/03 A2997 RMK A01 T00480030  RH  089%=      5-min Rain = 0
KFVS 171055Z 25001KT 05/03 A2997 RMK A01 T00510030  RH  088%=      5-min Rain = 0
KFVS 171100Z 26001KT 05/03 A2997 RMK A01 T00530031  RH  087%=      5-min Rain = 0
KFVS 171105Z 31003KT 05/02 A2998 RMK A01 T00450020  RH  085%=      5-min Rain = 0
KFVS 171110Z 31005KT 03/01 A2998 RMK A01 T00270006  RH  087%=      5-min Rain = 0
KFVS 171115Z 31006KT 02/01 A2999 RMK A01 T00230007  RH  091%=      5-min Rain = 0
KFVS 171120Z 32007KT 02/00 A2999 RMK A01 T00190004  RH  091%=      5-min Rain = 0
KFVS 171125Z 33006KT 02/01 A2999 RMK A01 T00220009  RH  093%=      5-min Rain = 0
KFVS 171130Z 33004KT 03/02 A2999 RMK A01 T00330022  RH  094%=      5-min Rain = 0
KFVS 171135Z 34004KT 04/03 A30 RMK A01 T00410028  RH  093%=      5-min Rain = 0
KFVS 171140Z 35004KT 04/03 A30 RMK A01 T00400025  RH  091%=      5-min Rain = 0
KFVS 171145Z 01005KT 04/02 A30 RMK A01 T00390023  RH  091%=      5-min Rain = 0
KFVS 171150Z 00011KT 05/03 A30 RMK A01 T00450031  RH  092%=      5-min Rain = 0
KFVS 171155Z 00014KT 05/04 A3001 RMK A01 T00540035  RH  089%=      5-min Rain = 0
KFVS 171200Z 00015KT 06/04 A3001 RMK A01 T00570035  RH  088%=      5-min Rain = 0
KFVS 171205Z 00016G24KT 06/04 A3001 RMK A01 T00600036  RH  087%=      5-min Rain = 0
KFVS 171210Z 01017G24KT 07/04 A3002 RMK A01 T00680035  RH  081%=      5-min Rain = 0
KFVS 171215Z 02015G23KT 07/03 A3002 RMK A01 T00740029  RH  075%=      5-min Rain = 0
KFVS 171220Z 03014KT 07/03 A3002 RMK A01 T00740026  RH  073%=      5-min Rain = 0
KFVS 171225Z 03013KT 07/03 A3002 RMK A01 T00690025  RH  075%=      5-min Rain = 0
KFVS 171230Z 02013KT 07/02 A3003 RMK A01 T00680024  RH  075%=      5-min Rain = 0
KFVS 171235Z 02014KT 07/02 A3003 RMK A01 T00700022  RH  073%=      5-min Rain = 0
KFVS 171240Z 02015G21KT 07/02 A3003 RMK A01 T00710021  RH  072%=      5-min Rain = 0
KFVS 171245Z 02015G22KT 07/02 A3003 RMK A01 T00720019  RH  070%=      5-min Rain = 0
KFVS 171250Z 02013KT 07/02 A3004 RMK A01 T00720018  RH  070%=      5-min Rain = 0
KFVS 171255Z 02014G20KT 07/02 A3004 RMK A01 T00720017  RH  069%=      5-min Rain = 0
KFVS 171300Z 01014KT 07/02 A3004 RMK A01 T00710017  RH  069%=      5-min Rain = 0
KFVS 171305Z 01014KT 07/02 A3005 RMK A01 T00710016  RH  069%=      5-min Rain = 0
KFVS 171310Z 01015G20KT 07/02 A3005 RMK A01 T00700016  RH  069%=      5-min Rain = 0
KFVS 171315Z 01016KT 07/02 A3005 RMK A01 T00710015  RH  068%=      5-min Rain = 0
KFVS 171320Z 01016G21KT 07/01 A3006 RMK A01 T00720014  RH  067%=      5-min Rain = 0
KFVS 171325Z 01016KT 07/01 A3006 RMK A01 T00720013  RH  067%=      5-min Rain = 0
KFVS 171330Z 01016G22KT 07/01 A3006 RMK A01 T00730012  RH  066%=      5-min Rain = 0
KFVS 171335Z 01017G22KT 07/01 A3006 RMK A01 T00740011  RH  065%=      5-min Rain = 0
KFVS 171340Z 01015G20KT 07/01 A3007 RMK A01 T00740011  RH  065%=      5-min Rain = 0
KFVS 171345Z 01018KT 08/01 A3007 RMK A01 T00760010  RH  064%=      5-min Rain = 0
KFVS 171350Z 01018G24KT 08/01 A3008 RMK A01 T00780010  RH  063%=      5-min Rain = 0
KFVS 171355Z 01017G25KT 08/01 A3008 RMK A01 T00800009  RH  062%=      5-min Rain = 0
KFVS 171400Z 36014G20KT 08/01 A3009 RMK A01 T00770011  RH  064%=      5-min Rain = 0
KFVS 171405Z 35013KT 07/01 A3009 RMK A01 T00690014  RH  069%=      5-min Rain = 0
KFVS 171410Z 35013KT 07/02 A301 RMK A01 T00700015  RH  069%=      5-min Rain = 0
KFVS 171415Z 35013KT 07/02 A301 RMK A01 T00700016  RH  069%=      5-min Rain = 0
KFVS 171420Z 36012KT 07/02 A301 RMK A01 T00720016  RH  069%=      5-min Rain = 0
KFVS 171425Z 00012KT 08/02 A301 RMK A01 T00760017  RH  067%=      5-min Rain = 0
KFVS 171430Z 00014KT 08/02 A301 RMK A01 T00810015  RH  064%=      5-min Rain = 0
KFVS 171435Z 36016G22KT 08/01 A301 RMK A01 T00830014  RH  063%=      5-min Rain = 0
KFVS 171440Z 00017KT 09/01 A301 RMK A01 T00850014  RH  062%=      5-min Rain = 0
KFVS 171445Z 36017KT 09/01 A301 RMK A01 T00850014  RH  062%=      5-min Rain = 0
KFVS 171450Z 00017G22KT 09/01 A301 RMK A01 T00870014  RH  061%=      5-min Rain = 0
KFVS 171455Z 01017KT 09/01 A301 RMK A01 T00900014  RH  059%=      5-min Rain = 0
KFVS 171500Z 01016G22KT 09/01 A3011 RMK A01 T00930014  RH  059%=      5-min Rain = 0
KFVS 171505Z 01017G22KT 09/02 A3011 RMK A01 T00940015  RH  059%=      5-min Rain = 0
KFVS 171510Z 01018G23KT 10/02 A3011 RMK A01 T00950017  RH  059%=      5-min Rain = 0
KFVS 171515Z 01017KT 10/02 A3011 RMK A01 T00970018  RH  059%=      5-min Rain = 0
KFVS 171520Z 01018G23KT 10/02 A3011 RMK A01 T00990018  RH  058%=      5-min Rain = 0
KFVS 171525Z 01019G24KT 10/02 A3011 RMK A01 T01020018  RH  057%=      5-min Rain = 0
KFVS 171530Z 01020G29KT 10/02 A3012 RMK A01 T01030015  RH  055%=      5-min Rain = 0
KFVS 171535Z 01020G25KT 11/02 A3012 RMK A01 T01050016  RH  055%=      5-min Rain = 0
KFVS 171540Z 02023G30KT 11/01 A3012 RMK A01 T01050014  RH  054%=      5-min Rain = 0
KFVS 171545Z 02018G27KT 11/02 A3012 RMK A01 T01090017  RH  054%=      5-min Rain = 0
KFVS 171550Z 02020G25KT 11/02 A3012 RMK A01 T01100016  RH  053%=      5-min Rain = 0
KFVS 171555Z 01022G28KT 11/02 A3011 RMK A01 T01120017  RH  053%=      5-min Rain = 0
KFVS 171600Z 01021G27KT 11/02 A3011 RMK A01 T01120017  RH  053%=      5-min Rain = 0
KFVS 171605Z 01022G33KT 12/02 A3011 RMK A01 T01150017  RH  052%=      5-min Rain = 0
KFVS 171610Z 01025G30KT 11/02 A3011 RMK A01 T01140016  RH  052%=      5-min Rain = 0
KFVS 171615Z 01022G30KT 12/02 A3012 RMK A01 T01150017  RH  052%=      5-min Rain = 0
KFVS 171620Z 01022G28KT 12/02 A3012 RMK A01 T01180017  RH  051%=      5-min Rain = 0
KFVS 171625Z 02021G27KT 12/02 A3012 RMK A01 T01210018  RH  050%=      5-min Rain = 0
KFVS 171630Z 01022G27KT 12/02 A3012 RMK A01 T01210018  RH  050%=      5-min Rain = 0
KFVS 171635Z 01021G29KT 12/02 A3012 RMK A01 T01220019  RH  050%=      5-min Rain = 0
KFVS 171640Z 01023G28KT 12/02 A3012 RMK A01 T01220017  RH  049%=      5-min Rain = 0
KFVS 171645Z 01021G28KT 12/02 A3012 RMK A01 T01230018  RH  049%=      5-min Rain = 0
KFVS 171650Z 02020G25KT 13/02 A3012 RMK A01 T01250019  RH  049%=      5-min Rain = 0
KFVS 171655Z 02022G27KT 13/02 A3012 RMK A01 T01250018  RH  049%=      5-min Rain = 0
KFVS 171700Z 02019G26KT 13/02 A3012 RMK A01 T01270019  RH  049%=      5-min Rain = 0
KFVS 171705Z 01018G23KT 13/02 A3013 RMK A01 T01300020  RH  048%=      5-min Rain = 0
KFVS 171710Z 02020KT 13/02 A3013 RMK A01 T01290019  RH  048%=      5-min Rain = 0
KFVS 171715Z 02018G24KT 13/02 A3013 RMK A01 T01320021  RH  047%=      5-min Rain = 0
KFVS 171720Z 02018G25KT 13/02 A3013 RMK A01 T01340019  RH  046%=      5-min Rain = 0
KFVS 171725Z 01019G24KT 13/02 A3013 RMK A01 T01340019  RH  047%=      5-min Rain = 0
KFVS 171730Z 01019G24KT 14/02 A3012 RMK A01 T01350018  RH  046%=      5-min Rain = 0
KFVS 171735Z 02017G23KT 14/02 A3012 RMK A01 T01360019  RH  046%=      5-min Rain = 0
KFVS 171740Z 02018KT 14/02 A3012 RMK A01 T01380018  RH  045%=      5-min Rain = 0
KFVS 171745Z 02017G24KT 14/02 A3012 RMK A01 T01390019  RH  045%=      5-min Rain = 0
KFVS 171750Z 02016G21KT 14/02 A3012 RMK A01 T01430021  RH  044%=      5-min Rain = 0
KFVS 171755Z 02015G22KT 14/02 A3012 RMK A01 T01430019  RH  044%=      5-min Rain = 0
KFVS 171800Z 00017KT 14/02 A3012 RMK A01 T01440020  RH  044%=      5-min Rain = 0
KFVS 171805Z 01014G19KT 15/02 A3012 RMK A01 T01480023  RH  043%=      5-min Rain = 0
KFVS 171810Z 01016G21KT 15/02 A3012 RMK A01 T01460019  RH  043%=      5-min Rain = 0
KFVS 171815Z 01014G19KT 15/02 A3012 RMK A01 T01490022  RH  043%=      5-min Rain = 0
KFVS 171820Z 00015KT 15/02 A3012 RMK A01 T01490020  RH  042%=      5-min Rain = 0
KFVS 171825Z 01013G19KT 15/02 A3012 RMK A01 T01510021  RH  042%=      5-min Rain = 0
KFVS 171830Z 03013G19KT 16/02 A3011 RMK A01 T01560020  RH  041%=      5-min Rain = 0
KFVS 171835Z 01014G21KT 15/02 A3011 RMK A01 T01520019  RH  041%=      5-min Rain = 0
KFVS 171840Z 01015G20KT 15/02 A3011 RMK A01 T01530020  RH  041%=      5-min Rain = 0
KFVS 171845Z 01016G21KT 16/02 A3011 RMK A01 T01570019  RH  040%=      5-min Rain = 0
KFVS 171850Z 03015KT 15/02 A301 RMK A01 T01540017  RH  040%=      5-min Rain = 0
KFVS 171855Z 01014G22KT 16/02 A301 RMK A01 T01550019  RH  040%=      5-min Rain = 0
KFVS 171900Z 01015G20KT 16/02 A301 RMK A01 T01560018  RH  040%=      5-min Rain = 0
KFVS 171905Z 02015G23KT 16/02 A301 RMK A01 T01560018  RH  040%=      5-min Rain = 0
KFVS 171910Z 01013G21KT 16/02 A301 RMK A01 T01550018  RH  040%=      5-min Rain = 0
KFVS 171915Z 02012G19KT 16/02 A301 RMK A01 T01610021  RH  040%=      5-min Rain = 0
KFVS 171920Z 36015KT 16/02 A301 RMK A01 T01610021  RH  040%=      5-min Rain = 0
KFVS 171925Z 36012KT 16/02 A301 RMK A01 T01590021  RH  040%=      5-min Rain = 0
KFVS 171930Z 01014KT 16/02 A301 RMK A01 T01610020  RH  039%=      5-min Rain = 0
KFVS 171935Z 00012KT 16/02 A301 RMK A01 T01580020  RH  040%=      5-min Rain = 0
KFVS 171940Z 00010G29KT 16/02 A301 RMK A01 T01620023  RH  040%=      5-min Rain = 0
KFVS 171945Z 01011G18KT 16/02 A301 RMK A01 T01640020  RH  038%=      5-min Rain = 0
KFVS 171950Z 01010G15KT 16/02 A301 RMK A01 T01630021  RH  039%=      5-min Rain = 0
KFVS 171955Z 01011G17KT 16/02 A301 RMK A01 T01620020  RH  039%=      5-min Rain = 0
KFVS 172000Z 02010KT 16/02 A301 RMK A01 T01640022  RH  039%=      5-min Rain = 0
KFVS 172005Z 03012G17KT 17/02 A301 RMK A01 T01650020  RH  038%=      5-min Rain = 0
KFVS 172010Z 02009G14KT 16/02 A301 RMK A01 T01610019  RH  039%=      5-min Rain = 0
KFVS 172015Z 01010KT 17/02 A301 RMK A01 T01690022  RH  038%=      5-min Rain = 0
KFVS 172020Z 02010G16KT 17/02 A301 RMK A01 T01660020  RH  038%=      5-min Rain = 0
KFVS 172025Z 03010G16KT 17/02 A301 RMK A01 T01670021  RH  038%=      5-min Rain = 0
KFVS 172030Z 03011KT 17/02 A3009 RMK A01 T01680019  RH  037%=      5-min Rain = 0
KFVS 172035Z 01010KT 17/02 A3009 RMK A01 T01650020  RH  038%=      5-min Rain = 0
KFVS 172040Z 00012KT 17/02 A3009 RMK A01 T01660020  RH  038%=      5-min Rain = 0
KFVS 172045Z 01013KT 17/02 A3009 RMK A01 T01670021  RH  038%=      5-min Rain = 0
KFVS 172050Z 02012KT 17/02 A3009 RMK A01 T01660019  RH  038%=      5-min Rain = 0
KFVS 172055Z 02012G17KT 17/02 A3008 RMK A01 T01670020  RH  038%=      5-min Rain = 0
KFVS 172100Z 02011KT 17/02 A3008 RMK A01 T01670020  RH  038%=      5-min Rain = 0
KFVS 172105Z 02011G16KT 17/02 A3008 RMK A01 T01660020  RH  038%=      5-min Rain = 0
KFVS 172110Z 00007KT 17/02 A3008 RMK A01 T01660020  RH  038%=      5-min Rain = 0
KFVS 172115Z 02007KT 17/02 A3008 RMK A01 T01680020  RH  038%=      5-min Rain = 0
KFVS 172120Z 01007G14KT 17/02 A3008 RMK A01 T01680021  RH  038%=      5-min Rain = 0
KFVS 172125Z 02010KT 17/02 A3007 RMK A01 T01660019  RH  038%=      5-min Rain = 0
KFVS 172130Z 00009KT 17/02 A3007 RMK A01 T01670020  RH  038%=      5-min Rain = 0
KFVS 172135Z 01007KT 17/02 A3008 RMK A01 T01660019  RH  038%=      5-min Rain = 0
KFVS 172140Z 03008KT 17/02 A3007 RMK A01 T01650019  RH  038%=      5-min Rain = 0
KFVS 172145Z 03008KT 17/02 A3007 RMK A01 T01670020  RH  038%=      5-min Rain = 0
KFVS 172150Z 03009KT 17/02 A3007 RMK A01 T01670019  RH  037%=      5-min Rain = 0
KFVS 172155Z 01008G13KT 17/02 A3007 RMK A01 T01660020  RH  038%=      5-min Rain = 0
KFVS 172200Z 02008KT 17/02 A3007 RMK A01 T01650019  RH  038%=      5-min Rain = 0
KFVS 172205Z 01008KT 16/02 A3007 RMK A01 T01640018  RH  038%=      5-min Rain = 0
KFVS 172210Z 36007G12KT 16/02 A3007 RMK A01 T01630019  RH  038%=      5-min Rain = 0
KFVS 172215Z 02007KT 16/02 A3007 RMK A01 T01640019  RH  038%=      5-min Rain = 0
KFVS 172220Z 03007KT 16/02 A3007 RMK A01 T01640020  RH  038%=      5-min Rain = 0
KFVS 172225Z 03009KT 16/02 A3007 RMK A01 T01630019  RH  039%=      5-min Rain = 0
KFVS 172230Z 03006KT 16/02 A3007 RMK A01 T01620019  RH  039%=      5-min Rain = 0
KFVS 172235Z 03005KT 16/02 A3007 RMK A01 T01630019  RH  038%=      5-min Rain = 0
KFVS 172240Z 36008KT 16/02 A3007 RMK A01 T01620018  RH  038%=      5-min Rain = 0
KFVS 172245Z 01007KT 16/02 A3007 RMK A01 T01600017  RH  039%=      5-min Rain = 0
KFVS 172250Z 01005KT 16/02 A3007 RMK A01 T01600019  RH  039%=      5-min Rain = 0
KFVS 172255Z 03006KT 16/02 A3007 RMK A01 T01580019  RH  040%=      5-min Rain = 0
KFVS 172300Z 03005KT 16/02 A3006 RMK A01 T01560017  RH  040%=      5-min Rain = 0
KFVS 172305Z 03005KT 15/02 A3007 RMK A01 T01540018  RH  040%=      5-min Rain = 0
KFVS 172310Z 02004KT 15/02 A3007 RMK A01 T01510018  RH  041%=      5-min Rain = 0
KFVS 172315Z 02004KT 15/02 A3007 RMK A01 T01480017  RH  042%=      5-min Rain = 0
KFVS 172320Z 02005KT 14/02 A3007 RMK A01 T01440017  RH  043%=      5-min Rain = 0
KFVS 172325Z 02005KT 14/02 A3007 RMK A01 T01390016  RH  044%=      5-min Rain = 0
KFVS 172330Z 02004KT 14/02 A3008 RMK A01 T01360016  RH  045%=      5-min Rain = 0
KFVS 172335Z 02004KT 13/02 A3007 RMK A01 T01330015  RH  045%=      5-min Rain = 0
KFVS 172340Z 02005KT 13/02 A3007 RMK A01 T01270016  RH  047%=      5-min Rain = 0
KFVS 172345Z 02005KT 13/02 A3008 RMK A01 T01260017  RH  048%=      5-min Rain = 0
KFVS 172350Z 02004KT 13/02 A3008 RMK A01 T01250016  RH  048%=      5-min Rain = 0
KFVS 172355Z 02004KT 13/02 A3008 RMK A01 T01260017  RH  048%=      5-min Rain = 0
KFVS 180000Z 02004KT 12/02 A3008 RMK A01 T01230016  RH  048%=      5-min Rain = 0
KFVS 180005Z 01003KT 12/02 A3008 RMK A01 T01180016  RH  050%=      5-min Rain = 0
KFVS 180010Z 35004KT 11/02 A3008 RMK A01 T01130017  RH  052%=      5-min Rain = 0
KFVS 180015Z 35004KT 11/02 A3008 RMK A01 T01100018  RH  054%=      5-min Rain = 0
KFVS 180020Z 35004KT 11/02 A3009 RMK A01 T01070018  RH  055%=      5-min Rain = 0
KFVS 180025Z 35005KT 10/02 A3009 RMK A01 T00980015  RH  057%=      5-min Rain = 0
KFVS 180030Z 36006KT 09/02 A3009 RMK A01 T00890015  RH  061%=      5-min Rain = 0
KFVS 180035Z 35006KT 09/02 A3009 RMK A01 T00860015  RH  062%=      5-min Rain = 0
KFVS 180040Z 35007KT 08/02 A3008 RMK A01 T00840016  RH  063%=      5-min Rain = 0
KFVS 180045Z 36007KT 09/02 A3008 RMK A01 T00860018  RH  063%=      5-min Rain = 0
KFVS 180050Z 00007KT 09/02 A3009 RMK A01 T00860018  RH  063%=      5-min Rain = 0
KFVS 180055Z 01006KT 09/02 A3009 RMK A01 T00860019  RH  064%=      5-min Rain = 0
KFVS 180100Z 02005KT 09/02 A3009 RMK A01 T00880021  RH  064%=      5-min Rain = 0
KFVS 180105Z 02005KT 09/02 A3009 RMK A01 T00940020  RH  061%=      5-min Rain = 0
KFVS 180110Z 02005KT 10/02 A3009 RMK A01 T00980020  RH  059%=      5-min Rain = 0
KFVS 180115Z 02004KT 10/02 A3009 RMK A01 T00980019  RH  059%=      5-min Rain = 0
KFVS 180120Z 02005KT 10/02 A3009 RMK A01 T01000020  RH  058%=      5-min Rain = 0
KFVS 180125Z 02004KT 10/02 A301 RMK A01 T01030019  RH  057%=      5-min Rain = 0
KFVS 180130Z 01004KT 11/02 A301 RMK A01 T01060019  RH  056%=      5-min Rain = 0
KFVS 180135Z 01003KT 11/02 A301 RMK A01 T01080019  RH  055%=      5-min Rain = 0
KFVS 180140Z 01003KT 11/02 A301 RMK A01 T01110020  RH  054%=      5-min Rain = 0
KFVS 180145Z 01003KT 11/02 A301 RMK A01 T01140020  RH  053%=      5-min Rain = 0
KFVS 180150Z 34001KT 11/02 A301 RMK A01 T01130016  RH  052%=      5-min Rain = 0
KFVS 180155Z 21001KT 09/02 A3011 RMK A01 T00930015  RH  059%=      5-min Rain = 0
KFVS 180200Z 22000KT 10/02 A3011 RMK A01 T01010019  RH  058%=      5-min Rain = 0
KFVS 180205Z 01002KT 11/02 A3011 RMK A01 T01090019  RH  054%=      5-min Rain = 0
KFVS 180210Z 02002KT 11/02 A3011 RMK A01 T01130018  RH  053%=      5-min Rain = 0
KFVS 180215Z 04002KT 09/01 A3011 RMK A01 T00880013  RH  060%=      5-min Rain = 0
KFVS 180220Z 04003KT 08/02 A3011 RMK A01 T00830016  RH  064%=      5-min Rain = 0
KFVS 180225Z 05002KT 09/02 A3011 RMK A01 T00920018  RH  061%=      5-min Rain = 0
KFVS 180230Z 07002KT 10/02 A3011 RMK A01 T00990018  RH  058%=      5-min Rain = 0
KFVS 180235Z 07002KT 10/02 A3011 RMK A01 T01000017  RH  057%=      5-min Rain = 0
KFVS 180240Z 07002KT 09/02 A3011 RMK A01 T00920015  RH  060%=      5-min Rain = 0
KFVS 180245Z 07002KT 08/01 A3012 RMK A01 T00840013  RH  062%=      5-min Rain = 0
KFVS 180250Z 07003KT 07/01 A3011 RMK A01 T00700009  RH  066%=      5-min Rain = 0
KFVS 180255Z 07003KT 07/02 A3011 RMK A01 T00730015  RH  068%=      5-min Rain = 0
KFVS 180300Z 06004KT 08/02 A3011 RMK A01 T00820016  RH  064%=      5-min Rain = 0
KFVS 180305Z 06004KT 07/01 A3011 RMK A01 T00740011  RH  065%=      5-min Rain = 0
KFVS 180310Z 08003KT 07/02 A3011 RMK A01 T00740015  RH  067%=      5-min Rain = 0
KFVS 180315Z 10003KT 08/02 A3012 RMK A01 T00830017  RH  064%=      5-min Rain = 0
KFVS 180320Z 12003KT 09/02 A3012 RMK A01 T00850015  RH  062%=      5-min Rain = 0
KFVS 180325Z 12003KT 09/02 A3012 RMK A01 T00850016  RH  063%=      5-min Rain = 0
KFVS 180330Z 12004KT 09/02 A3012 RMK A01 T00940018  RH  060%=      5-min Rain = 0
KFVS 180335Z 12003KT 09/02 A3012 RMK A01 T00910015  RH  060%=      5-min Rain = 0
KFVS 180340Z 12004KT 08/02 A3012 RMK A01 T00840015  RH  063%=      5-min Rain = 0
KFVS 180345Z 12004KT 08/02 A3012 RMK A01 T00830016  RH  063%=      5-min Rain = 0
KFVS 180350Z 11004KT 08/02 A3012 RMK A01 T00830015  RH  063%=      5-min Rain = 0
KFVS 180355Z 11005KT 08/02 A3011 RMK A01 T00820015  RH  063%=      5-min Rain = 0
KFVS 180400Z 11005KT 08/01 A3011 RMK A01 T00810014  RH  064%=      5-min Rain = 0
KFVS 180405Z 11005KT 08/01 A301 RMK A01 T00770012  RH  064%=      5-min Rain = 0
KFVS 180410Z 12005KT 07/01 A301 RMK A01 T00710011  RH  067%=      5-min Rain = 0
KFVS 180415Z 13005KT 08/01 A301 RMK A01 T00750013  RH  066%=      5-min Rain = 0
KFVS 180420Z 13005KT 08/01 A301 RMK A01 T00780013  RH  064%=      5-min Rain = 0
KFVS 180425Z 14005KT 08/01 A301 RMK A01 T00780013  RH  064%=      5-min Rain = 0
KFVS 180430Z 14005KT 08/02 A301 RMK A01 T00800015  RH  065%=      5-min Rain = 0
KFVS 180435Z 15005KT 08/02 A301 RMK A01 T00820016  RH  064%=      5-min Rain = 0
KFVS 180440Z 15005KT 08/02 A301 RMK A01 T00840016  RH  063%=      5-min Rain = 0
KFVS 180445Z 16005KT 08/02 A301 RMK A01 T00830016  RH  063%=      5-min Rain = 0
KFVS 180450Z 15004KT 08/02 A301 RMK A01 T00830016  RH  064%=      5-min Rain = 0
KFVS 180455Z 15004KT 08/01 A3009 RMK A01 T00810014  RH  063%=      5-min Rain = 0
KFVS 180500Z 13003KT 07/01 A3009 RMK A01 T00700012  RH  067%=      5-min Rain = 0
KFVS 180505Z 13003KT 06/01 A3009 RMK A01 T00630009  RH  069%=      5-min Rain = 0
KFVS 180510Z 14003KT 06/01 A3009 RMK A01 T00580009  RH  071%=      5-min Rain = 0
KFVS 180515Z 16003KT 06/01 A3009 RMK A01 T00620013  RH  072%=      5-min Rain = 0
KFVS 180520Z 17003KT 07/02 A3009 RMK A01 T00710016  RH  069%=      5-min Rain = 0
KFVS 180525Z 17003KT 08/02 A3009 RMK A01 T00760016  RH  067%=      5-min Rain = 0
KFVS 180530Z 18004KT 08/02 A3009 RMK A01 T00790016  RH  066%=      5-min Rain = 0
KFVS 180535Z 19004KT 08/02 A3009 RMK A01 T00800016  RH  065%=      5-min Rain = 0
KFVS 180540Z 19003KT 08/02 A3009 RMK A01 T00840018  RH  064%=      5-min Rain = 0
KFVS 180545Z 18004KT 09/02 A3009 RMK A01 T00870018  RH  063%=      5-min Rain = 0
KFVS 180550Z 19004KT 09/02 A3009 RMK A01 T00870017  RH  062%=      5-min Rain = 0
KFVS 180555Z 20004KT 09/02 A3008 RMK A01 T00880018  RH  062%=      5-min Rain = 0

Page generated in 0.0093 seconds.